Time;durP1;ratioP1;P1;durP2;ratioP2;P2;SDS_P1;SDS_P2;PMS_P1;PMS_P2;Temp;Humidity;BMP_temperature;BMP_pressure;BME280_temperature;BME280_humidity;BME280_pressure;Samples;Min_cycle;Max_cycle;Signal;HPM_P1;HPM_P2
2021/04/20 00:01:30;;;;;;;17.65;7.85;;;9.90;68.50;;;;;;6186304;23;20011;-51
2021/04/20 00:03:56;;;;;;;16.13;7.20;;;9.90;68.40;;;;;;6186086;23;20009;-51
2021/04/20 00:06:22;;;;;;;15.68;6.13;;;9.90;68.50;;;;;;6186147;23;20300;-51
2021/04/20 00:08:47;;;;;;;16.58;7.15;;;9.90;68.50;;;;;;6185408;23;20002;-51
2021/04/20 00:11:13;;;;;;;17.40;7.72;;;9.90;68.50;;;;;;6186131;23;20015;-51
2021/04/20 00:13:38;;;;;;;17.00;7.15;;;9.90;68.40;;;;;;6185902;23;20001;-51
2021/04/20 00:16:04;;;;;;;15.82;6.75;;;9.90;68.40;;;;;;6186489;23;20012;-51
2021/04/20 00:18:30;;;;;;;17.35;8.10;;;9.90;68.50;;;;;;6185753;23;20325;-51
2021/04/20 00:20:56;;;;;;;15.85;6.97;;;9.90;68.50;;;;;;6185916;23;20019;-51
2021/04/20 00:23:21;;;;;;;15.40;6.32;;;9.90;68.50;;;;;;6185722;23;20005;-51
2021/04/20 00:25:47;;;;;;;16.73;7.57;;;9.90;68.40;;;;;;6186256;23;20348;-51
2021/04/20 00:28:24;;;;;;;13.00;6.65;;;9.90;68.50;;;;;;6185672;23;20075;-51
2021/04/20 00:30:50;;;;;;;15.73;6.97;;;9.90;68.50;;;;;;6185940;23;20015;-51
2021/04/20 00:33:15;;;;;;;17.38;6.97;;;9.90;68.40;;;;;;6185947;23;20081;-51
2021/04/20 00:35:41;;;;;;;19.27;7.28;;;9.90;68.50;;;;;;6186278;23;20033;-51
2021/04/20 00:38:06;;;;;;;16.88;6.90;;;9.90;68.50;;;;;;6185800;23;20001;-51
2021/04/20 00:40:32;;;;;;;14.02;6.97;;;9.90;68.50;;;;;;6185342;23;20001;-51
2021/04/20 00:42:58;;;;;;;11.45;5.47;;;9.90;68.50;;;;;;6185913;23;20004;-51
2021/04/20 00:45:30;;;;;;;14.07;6.43;;;9.90;68.50;;;;;;6185931;23;20108;-51
2021/04/20 00:47:56;;;;;;;14.68;7.18;;;9.90;68.50;;;;;;6185907;23;20008;-51
2021/04/20 00:50:33;;;;;;;26.88;7.15;;;9.90;68.50;;;;;;6185429;23;20006;-51
2021/04/20 00:52:59;;;;;;;16.25;7.07;;;9.90;68.50;;;;;;6185755;23;20004;-51
2021/04/20 00:55:25;;;;;;;19.15;7.70;;;9.90;68.50;;;;;;6185977;23;20400;-51
2021/04/20 00:57:51;;;;;;;16.38;7.22;;;9.90;68.50;;;;;;6185669;23;20397;-51
2021/04/20 01:00:28;;;;;;;15.75;7.25;;;9.90;68.50;;;;;;6185419;23;20005;-51
2021/04/20 01:02:54;;;;;;;17.00;6.32;;;9.90;68.50;;;;;;6185518;23;20001;-51
2021/04/20 01:05:23;;;;;;;17.67;7.32;;;9.90;68.50;;;;;;6185463;23;20421;-51
2021/04/20 01:07:49;;;;;;;17.88;7.85;;;9.90;68.50;;;;;;6184750;23;20001;-51
2021/04/20 01:10:16;;;;;;;20.50;7.72;;;9.90;68.50;;;;;;6185051;23;20032;-51
2021/04/20 01:12:43;;;;;;;15.60;6.43;;;9.90;68.50;;;;;;6185603;23;20397;-51
2021/04/20 01:15:11;;;;;;;18.60;8.20;;;9.90;68.50;;;;;;6185860;23;20015;-51
2021/04/20 01:17:37;;;;;;;14.32;6.90;;;9.90;68.50;;;;;;6185893;23;20036;-51
2021/04/20 01:20:09;;;;;;;14.80;6.63;;;9.90;68.50;;;;;;6185046;23;20012;-51
2021/04/20 01:22:37;;;;;;;15.82;7.00;;;9.90;68.50;;;;;;6185599;23;20072;-51
2021/04/20 01:25:05;;;;;;;17.33;6.18;;;9.90;68.50;;;;;;6185528;23;20021;-51
2021/04/20 01:27:32;;;;;;;14.35;6.45;;;9.90;68.50;;;;;;6208985;23;20091;-51
2021/04/20 01:29:58;;;;;;;14.18;6.65;;;9.90;68.50;;;;;;6184824;23;20009;-51
2021/04/20 01:32:25;;;;;;;16.73;6.55;;;9.90;68.50;;;;;;6185559;23;20008;-51
2021/04/20 01:34:51;;;;;;;16.75;6.97;;;9.90;68.40;;;;;;6185617;23;20005;-51
2021/04/20 01:37:17;;;;;;;13.48;6.68;;;9.90;68.40;;;;;;6185850;23;20001;-51
2021/04/20 01:39:43;;;;;;;18.73;8.05;;;9.90;68.50;;;;;;6185709;23;20355;-51
2021/04/20 01:42:10;;;;;;;15.05;6.82;;;9.90;68.40;;;;;;6187043;23;20370;-51
2021/04/20 01:44:36;;;;;;;15.70;6.13;;;9.90;68.50;;;;;;6187105;23;20009;-51
2021/04/20 01:47:03;;;;;;;15.07;6.80;;;9.90;68.40;;;;;;6187424;23;20005;-51
2021/04/20 01:49:29;;;;;;;12.98;6.65;;;9.90;68.40;;;;;;6187210;23;20036;-51
2021/04/20 01:51:54;;;;;;;9.15;5.20;;;9.90;68.40;;;;;;6187421;23;20059;-51
2021/04/20 01:54:20;;;;;;;12.35;6.03;;;9.90;68.50;;;;;;6186829;23;20012;-51
2021/04/20 01:56:48;;;;;;;15.80;6.65;;;9.90;68.50;;;;;;6187810;23;19998;-51
2021/04/20 01:59:15;;;;;;;13.20;6.07;;;9.90;68.50;;;;;;6187109;23;20087;-51
2021/04/20 02:01:41;;;;;;;14.30;6.40;;;9.90;68.40;;;;;;6187472;23;20072;-51
2021/04/20 02:04:09;;;;;;;12.43;5.95;;;9.90;68.40;;;;;;6187109;23;20405;-51
2021/04/20 02:06:35;;;;;;;13.70;5.78;;;9.90;68.40;;;;;;6187482;23;20025;-51
2021/04/20 02:09:03;;;;;;;12.60;6.20;;;9.90;68.40;;;;;;6186738;23;20139;-51
2021/04/20 02:11:29;;;;;;;14.75;6.10;;;9.90;68.40;;;;;;6187456;23;20009;-51
2021/04/20 02:13:58;;;;;;;13.50;6.97;;;9.90;68.40;;;;;;6187468;23;20309;-51
2021/04/20 02:16:25;;;;;;;14.75;6.85;;;9.90;68.50;;;;;;6187219;23;20072;-51
2021/04/20 02:19:00;;;;;;;15.82;6.57;;;9.90;68.40;;;;;;6187002;23;20008;-51
2021/04/20 02:21:27;;;;;;;15.68;6.95;;;9.90;68.50;;;;;;6186962;23;20385;-51
2021/04/20 02:23:53;;;;;;;17.67;6.97;;;9.90;68.40;;;;;;6187070;23;20009;-51
2021/04/20 02:26:29;;;;;;;14.52;6.18;;;9.90;68.40;;;;;;6187353;23;20036;-51
2021/04/20 02:29:00;;;;;;;12.23;6.05;;;9.90;68.40;;;;;;6187150;23;20001;-51
2021/04/20 02:31:26;;;;;;;16.00;6.32;;;9.90;68.40;;;;;;6187097;23;20012;-51
2021/04/20 02:33:55;;;;;;;15.15;6.57;;;9.90;68.40;;;;;;6186702;23;20305;-51
2021/04/20 02:36:21;;;;;;;15.90;6.57;;;9.90;68.40;;;;;;6186903;23;20024;-51
2021/04/20 02:38:47;;;;;;;14.20;6.07;;;9.90;68.50;;;;;;6186668;23;20405;-51
2021/04/20 02:41:17;;;;;;;12.63;5.82;;;9.90;68.40;;;;;;6187127;23;20005;-51
2021/04/20 02:43:43;;;;;;;16.85;5.70;;;9.90;68.40;;;;;;6183140;23;20040;-51
2021/04/20 02:46:09;;;;;;;15.02;6.35;;;9.90;68.40;;;;;;6186669;23;20005;-51
2021/04/20 02:48:35;;;;;;;16.75;7.03;;;9.90;68.40;;;;;;6186696;23;20489;-51
2021/04/20 02:51:01;;;;;;;14.63;6.50;;;9.90;68.40;;;;;;6186668;23;20424;-51
2021/04/20 02:53:28;;;;;;;14.40;6.07;;;9.90;68.40;;;;;;6187103;23;20068;-51
2021/04/20 02:55:56;;;;;;;12.40;5.60;;;9.80;68.30;;;;;;6186895;23;20031;-51
2021/04/20 02:58:25;;;;;;;14.55;6.45;;;9.90;68.50;;;;;;6186723;23;20005;-51
2021/04/20 03:01:06;;;;;;;18.23;6.97;;;9.90;68.40;;;;;;6186873;23;20001;-51
2021/04/20 03:03:37;;;;;;;13.90;6.35;;;9.90;68.40;;;;;;6186741;23;20088;-51
2021/04/20 03:06:04;;;;;;;15.07;6.22;;;9.90;68.30;;;;;;6186806;23;20092;-51
2021/04/20 03:08:31;;;;;;;12.93;5.10;;;9.90;68.40;;;;;;6186419;23;19997;-51
2021/04/20 03:11:00;;;;;;;12.75;6.40;;;9.90;68.40;;;;;;6187081;23;20028;-51
2021/04/20 03:13:26;;;;;;;13.77;6.75;;;9.90;68.40;;;;;;6186436;23;20424;-51
2021/04/20 03:15:53;;;;;;;16.20;7.18;;;9.90;69.10;;;;;;6186692;23;20064;-51
2021/04/20 03:18:19;;;;;;;12.48;6.20;;;9.80;68.40;;;;;;6186587;23;20278;-51
2021/04/20 03:20:44;;;;;;;15.60;6.90;;;9.80;68.30;;;;;;6186395;23;20464;-51
2021/04/20 03:23:10;;;;;;;18.83;7.55;;;9.80;68.30;;;;;;6186781;23;20013;-51
2021/04/20 03:25:36;;;;;;;17.42;7.28;;;9.90;68.30;;;;;;6186832;23;20024;-51
2021/04/20 03:28:01;;;;;;;14.20;6.72;;;9.90;68.30;;;;;;6186449;23;20411;-51
2021/04/20 03:30:30;;;;;;;17.77;7.22;;;9.90;68.30;;;;;;6186546;23;20014;-51
2021/04/20 03:33:25;;;;;;;20.17;7.75;;;9.90;68.40;;;;;;6186511;23;19997;-51
2021/04/20 03:36:13;;;;;;;14.85;6.85;;;9.90;68.30;;;;;;6172043;23;20001;-51
2021/04/20 03:39:04;;;;;;;20.38;7.47;;;9.90;68.30;;;;;;6185806;23;20005;-51
2021/04/20 03:41:47;;;;;;;16.65;7.03;;;9.80;68.30;;;;;;6186912;23;20019;-51
2021/04/20 03:44:18;;;;;;;16.38;6.22;;;9.90;68.50;;;;;;6186315;23;20297;-51
2021/04/20 03:46:46;;;;;;;14.75;7.40;;;9.90;68.30;;;;;;6186501;23;20056;-51
2021/04/20 03:49:16;;;;;;;22.67;7.50;;;9.90;68.40;;;;;;6209258;23;20055;-51
2021/04/20 03:51:48;;;;;;;16.17;8.02;;;9.90;68.40;;;;;;6186197;23;20289;-51
2021/04/20 03:54:16;;;;;;;17.52;8.60;;;9.90;68.30;;;;;;6186460;23;20012;-51
2021/04/20 03:56:46;;;;;;;16.23;7.40;;;9.90;68.40;;;;;;6186289;23;20043;-51
2021/04/20 03:59:13;;;;;;;13.45;7.35;;;9.90;68.40;;;;;;6185561;23;20079;-51
2021/04/20 04:01:43;;;;;;;15.50;7.07;;;9.80;68.30;;;;;;6186060;23;20007;-51
2021/04/20 04:04:11;;;;;;;19.20;7.85;;;9.90;68.40;;;;;;6185756;23;20059;-51
2021/04/20 04:06:39;;;;;;;18.27;7.13;;;9.80;68.30;;;;;;6186505;23;20080;-51
2021/04/20 04:09:06;;;;;;;15.98;7.95;;;9.80;68.30;;;;;;6185535;23;20409;-51
2021/04/20 04:11:36;;;;;;;16.92;7.50;;;9.90;68.40;;;;;;6185916;23;20046;-51
2021/04/20 04:14:03;;;;;;;15.88;6.63;;;9.80;68.30;;;;;;6186054;23;20001;-51
2021/04/20 04:16:31;;;;;;;19.15;7.80;;;9.80;68.30;;;;;;6186482;23;20009;-51
2021/04/20 04:18:59;;;;;;;17.33;7.40;;;9.80;68.40;;;;;;6185560;23;20032;-52
2021/04/20 04:21:30;;;;;;;13.90;6.32;;;9.80;68.40;;;;;;6186109;23;20463;-51
2021/04/20 04:24:02;;;;;;;17.85;7.53;;;9.80;68.40;;;;;;6185870;23;19997;-51
2021/04/20 04:26:33;;;;;;;15.88;7.10;;;9.90;68.50;;;;;;6186448;23;20015;-51
2021/04/20 04:29:01;;;;;;;13.80;6.45;;;9.80;68.30;;;;;;6185565;23;20479;-51
2021/04/20 04:31:29;;;;;;;15.82;6.57;;;9.90;68.40;;;;;;6185798;23;20012;-51
2021/04/20 04:33:55;;;;;;;16.25;6.65;;;9.90;68.40;;;;;;6185515;23;20005;-51
2021/04/20 04:36:22;;;;;;;14.68;6.93;;;9.80;68.40;;;;;;6185823;23;20009;-51
2021/04/20 04:38:48;;;;;;;14.20;6.82;;;9.80;68.40;;;;;;6185481;23;20073;-51
2021/04/20 04:41:14;;;;;;;16.45;7.03;;;9.80;68.40;;;;;;6185907;23;20033;-51
2021/04/20 04:43:41;;;;;;;15.07;7.00;;;9.90;68.50;;;;;;6185847;23;20069;-51
2021/04/20 04:46:08;;;;;;;15.93;6.78;;;9.90;68.40;;;;;;6186129;23;20080;-51
2021/04/20 04:48:35;;;;;;;16.38;7.07;;;9.90;68.50;;;;;;6185692;23;20001;-51
2021/04/20 04:51:02;;;;;;;14.25;6.97;;;9.80;68.40;;;;;;6185453;23;20422;-51
2021/04/20 04:53:28;;;;;;;12.90;6.38;;;9.80;68.40;;;;;;6186014;23;20005;-51
2021/04/20 04:56:05;;;;;;;17.25;7.40;;;9.80;68.40;;;;;;6185541;23;20013;-51
2021/04/20 04:58:34;;;;;;;19.13;7.65;;;9.90;68.50;;;;;;6185291;23;20063;-51
2021/04/20 05:01:01;;;;;;;15.07;7.27;;;9.80;68.40;;;;;;6185822;23;20009;-51
2021/04/20 05:03:27;;;;;;;16.73;7.72;;;9.90;68.50;;;;;;6185762;23;20052;-51
2021/04/20 05:06:00;;;;;;;21.85;8.98;;;9.80;68.40;;;;;;6185242;23;20341;-51
2021/04/20 05:08:27;;;;;;;20.80;8.55;;;9.90;68.40;;;;;;6185345;23;20033;-51
2021/04/20 05:10:52;;;;;;;15.82;7.05;;;9.80;68.40;;;;;;6185415;23;20466;-51
2021/04/20 05:13:19;;;;;;;15.20;7.00;;;9.90;68.40;;;;;;6185743;23;20073;-51
2021/04/20 05:15:44;;;;;;;16.83;7.80;;;9.90;68.40;;;;;;6185758;23;20005;-51
2021/04/20 05:18:13;;;;;;;16.33;7.18;;;9.90;68.40;;;;;;6185880;23;20436;-51
2021/04/20 05:20:45;;;;;;;16.52;6.47;;;9.90;68.30;;;;;;6185193;23;20015;-51
2021/04/20 05:23:15;;;;;;;20.13;8.80;;;9.90;68.30;;;;;;6185654;23;20076;-51
2021/04/20 05:25:41;;;;;;;14.93;7.00;;;9.90;68.30;;;;;;6185602;23;20013;-51
2021/04/20 05:28:07;;;;;;;15.93;7.55;;;9.90;68.30;;;;;;6185593;23;20008;-51
2021/04/20 05:30:33;;;;;;;16.25;7.25;;;9.90;68.30;;;;;;6185032;23;20012;-51
2021/04/20 05:33:00;;;;;;;14.80;5.95;;;9.90;68.30;;;;;;6185518;23;20100;-51
2021/04/20 05:35:26;;;;;;;13.85;6.97;;;9.90;68.30;;;;;;6185468;23;20063;-51
2021/04/20 05:37:52;;;;;;;19.60;7.65;;;9.90;68.20;;;;;;6185817;23;19997;-51
2021/04/20 05:40:23;;;;;;;24.55;7.10;;;9.90;68.30;;;;;;6185374;23;20060;-51
2021/04/20 05:42:53;;;;;;;14.27;7.15;;;10.00;68.30;;;;;;6185601;23;20084;-51
2021/04/20 05:45:18;;;;;;;15.23;7.55;;;10.00;68.30;;;;;;6184970;23;20009;-51
2021/04/20 05:47:46;;;;;;;19.42;7.13;;;10.00;68.30;;;;;;6185721;23;19997;-51
2021/04/20 05:50:24;;;;;;;14.75;6.72;;;10.00;68.30;;;;;;6184933;23;20009;-48
2021/04/20 05:52:50;;;;;;;15.38;6.32;;;10.00;68.30;;;;;;6184481;23;20406;-48
2021/04/20 05:55:16;;;;;;;26.13;8.68;;;9.90;68.30;;;;;;6185612;23;20008;-48
2021/04/20 05:57:49;;;;;;;16.58;7.00;;;10.00;68.30;;;;;;6185268;23;20001;-48
2021/04/20 06:00:17;;;;;;;15.00;7.65;;;10.00;68.30;;;;;;6185385;23;20009;-48
2021/04/20 06:02:44;;;;;;;13.88;6.15;;;10.00;68.30;;;;;;6185672;23;20001;-48
2021/04/20 06:05:12;;;;;;;13.38;6.03;;;10.00;68.30;;;;;;6185463;23;20021;-48
2021/04/20 06:07:42;;;;;;;13.25;6.28;;;10.00;68.20;;;;;;6185677;23;20001;-48
2021/04/20 06:10:09;;;;;;;17.17;7.60;;;10.00;68.30;;;;;;6185284;23;20034;-48
2021/04/20 06:12:36;;;;;;;18.00;7.13;;;10.00;68.30;;;;;;6184652;23;20032;-48
2021/04/20 06:15:06;;;;;;;18.55;8.02;;;10.00;68.20;;;;;;6185263;23;20016;-48
2021/04/20 06:17:34;;;;;;;25.25;8.13;;;10.00;68.20;;;;;;6184989;23;20302;-49
2021/04/20 06:20:01;;;;;;;15.65;8.07;;;10.00;68.20;;;;;;6185343;23;20025;-48
2021/04/20 06:22:27;;;;;;;14.07;6.90;;;10.00;68.20;;;;;;6185625;23;20085;-48
2021/04/20 06:24:53;;;;;;;18.20;7.70;;;10.00;68.20;;;;;;6185325;23;20040;-48
2021/04/20 06:27:19;;;;;;;26.92;11.38;;;10.00;68.10;;;;;;6187116;23;20136;-48
2021/04/20 06:29:45;;;;;;;19.75;7.72;;;10.00;68.20;;;;;;6186457;23;20033;-48
2021/04/20 06:32:12;;;;;;;17.67;7.15;;;10.00;68.10;;;;;;6187018;23;20012;-48
2021/04/20 06:34:38;;;;;;;19.73;7.50;;;10.00;68.20;;;;;;6187349;23;20005;-49
2021/04/20 06:37:09;;;;;;;21.70;7.68;;;10.00;68.20;;;;;;6186717;23;20085;-48
2021/04/20 06:39:35;;;;;;;;;;;10.00;68.20;;;;;;6186936;23;20409;-48
2021/04/20 06:42:02;;;;;;;15.95;6.20;;;10.10;68.20;;;;;;6186819;23;20396;-48
2021/04/20 06:44:35;;;;;;;13.93;7.00;;;10.10;69.10;;;;;;6187179;23;20013;-48
2021/04/20 06:47:16;;;;;;;18.00;7.60;;;10.10;68.30;;;;;;6186924;23;20001;-48
2021/04/20 06:50:03;;;;;;;14.57;6.60;;;10.10;68.30;;;;;;6186921;23;20076;-48
2021/04/20 06:52:32;;;;;;;21.95;7.95;;;10.10;68.30;;;;;;6187175;23;20004;-48
2021/04/20 06:55:07;;;;;;;18.27;7.78;;;10.10;68.20;;;;;;6186826;23;20001;-48
2021/04/20 06:57:39;;;;;;;17.83;6.57;;;10.10;68.30;;;;;;6186777;23;20009;-48
2021/04/20 07:00:19;;;;;;;23.80;8.98;;;10.10;69.00;;;;;;6186078;23;20420;-48
2021/04/20 07:02:56;;;;;;;14.77;6.95;;;10.10;68.20;;;;;;6187206;23;20080;-48
2021/04/20 07:06:09;;;;;;;20.70;8.07;;;10.20;68.20;;;;;;6186931;23;20044;-48
2021/04/20 07:08:59;;;;;;;16.55;7.68;;;10.20;68.30;;;;;;6179804;23;20005;-48
2021/04/20 07:11:28;;;;;;;17.45;7.90;;;10.20;68.30;;;;;;6186788;23;20005;-48
2021/04/20 07:13:58;;;;;;;17.25;8.55;;;10.20;68.30;;;;;;6186890;23;20075;-48
2021/04/20 07:16:32;;;;;;;21.80;7.45;;;10.20;69.10;;;;;;6186890;23;20297;-48
2021/04/20 07:19:16;;;;;;;12.90;5.78;;;10.20;68.30;;;;;;6209694;23;20009;-49
2021/04/20 07:22:03;;;;;;;14.43;6.40;;;10.20;68.30;;;;;;6186514;23;20001;-48
2021/04/20 07:25:06;;;;;;;22.42;10.05;;;10.20;68.30;;;;;;6186864;23;20001;-49
2021/04/20 07:28:09;;;;;;;18.08;8.50;;;10.20;68.30;;;;;;6186624;23;20088;-48
2021/04/20 07:31:12;;;;;;;15.05;5.53;;;10.20;68.30;;;;;;6186765;23;20066;-48
2021/04/20 07:34:09;;;;;;;18.05;7.95;;;10.30;68.40;;;;;;6186572;23;20412;-48
2021/04/20 07:36:35;;;;;;;21.08;8.38;;;10.30;68.40;;;;;;6186968;23;20007;-49
2021/04/20 07:39:10;;;;;;;19.73;8.50;;;10.30;68.40;;;;;;6186087;23;20051;-48
2021/04/20 07:41:56;;;;;;;23.88;9.38;;;10.30;68.40;;;;;;6186562;23;20027;-48
2021/04/20 07:44:31;;;;;;;21.67;8.73;;;10.30;68.30;;;;;;6186752;23;20040;-48
2021/04/20 07:46:58;;;;;;;20.02;9.32;;;10.30;68.30;;;;;;6186388;23;20007;-48
2021/04/20 07:49:36;;;;;;;16.40;7.90;;;10.30;68.30;;;;;;6186539;23;20009;-48
2021/04/20 07:52:10;;;;;;;19.63;7.72;;;10.30;68.30;;;;;;6186050;23;20396;-49
2021/04/20 07:54:43;;;;;;;23.25;8.57;;;10.40;68.30;;;;;;6186242;23;20441;-49
2021/04/20 07:57:17;;;;;;;19.65;8.80;;;10.40;68.30;;;;;;6186472;23;20001;-48
2021/04/20 07:59:53;;;;;;;23.67;9.93;;;10.40;68.20;;;;;;6186551;23;20040;-48
2021/04/20 08:02:34;;;;;;;21.52;9.35;;;10.40;68.30;;;;;;6186351;23;20059;-48
2021/04/20 08:05:21;;;;;;;23.70;10.68;;;10.40;68.20;;;;;;6186547;23;20044;-48
2021/04/20 08:08:18;;;;;;;20.67;9.27;;;10.50;68.30;;;;;;6186327;23;20460;-49
2021/04/20 08:10:51;;;;;;;23.52;10.52;;;10.50;68.20;;;;;;6185971;23;20007;-48
2021/04/20 08:13:36;;;;;;;26.05;10.30;;;10.50;68.20;;;;;;6186276;23;20345;-48
2021/04/20 08:16:15;;;;;;;20.10;8.25;;;10.50;68.10;;;;;;6186098;23;20068;-48
2021/04/20 08:18:51;;;;;;;23.15;7.13;;;10.60;68.10;;;;;;6185695;23;20435;-49
2021/04/20 08:21:17;;;;;;;29.48;11.90;;;10.60;68.00;;;;;;6185501;23;20413;-48
2021/04/20 08:23:48;;;;;;;21.10;7.97;;;10.60;68.00;;;;;;6186049;23;20105;-48
2021/04/20 08:26:21;;;;;;;19.67;7.68;;;10.60;68.00;;;;;;6186061;23;20020;-48
2021/04/20 08:29:04;;;;;;;11.02;5.93;;;10.60;68.00;;;;;;6185910;23;20001;-48
2021/04/20 08:31:50;;;;;;;29.67;10.57;;;10.60;68.10;;;;;;6186117;23;20063;-48
2021/04/20 08:34:16;;;;;;;28.23;10.23;;;10.60;68.10;;;;;;6185872;23;20017;-49
2021/04/20 08:36:54;;;;;;;37.22;13.70;;;10.70;68.00;;;;;;6185434;23;19993;-48
2021/04/20 08:39:29;;;;;;;28.15;11.55;;;10.70;68.00;;;;;;6185534;23;20016;-48
2021/04/20 08:42:07;;;;;;;25.15;9.65;;;10.70;67.90;;;;;;6185432;23;20356;-48
2021/04/20 08:44:55;;;;;;;41.25;14.70;;;10.80;68.00;;;;;;6185741;23;20412;-48
2021/04/20 08:47:33;;;;;;;25.83;10.20;;;10.80;67.90;;;;;;6185101;23;20001;-48
2021/04/20 08:50:21;;;;;;;21.23;8.10;;;10.80;68.00;;;;;;6185816;23;20012;-49
2021/04/20 08:53:12;;;;;;;35.20;12.50;;;10.90;68.00;;;;;;6185362;23;20008;-48
2021/04/20 08:55:56;;;;;;;21.75;7.97;;;10.90;68.00;;;;;;6185921;23;20001;-48
2021/04/20 08:58:41;;;;;;;23.10;9.70;;;10.90;68.00;;;;;;6185185;23;20024;-48
2021/04/20 09:01:25;;;;;;;34.83;13.15;;;11.00;68.00;;;;;;6186130;23;20005;-48
2021/04/20 09:04:01;;;;;;;45.22;16.60;;;11.00;67.90;;;;;;6185701;23;19997;-48
2021/04/20 09:06:32;;;;;;;35.42;14.07;;;11.00;67.70;;;;;;6185694;23;20005;-48
2021/04/20 09:09:12;;;;;;;27.42;10.70;;;11.10;67.70;;;;;;6185331;23;20420;-48
2021/04/20 09:11:45;;;;;;;39.03;12.40;;;11.10;67.60;;;;;;6185847;23;20005;-48
2021/04/20 09:14:20;;;;;;;31.95;12.27;;;11.10;67.70;;;;;;6185804;23;20248;-48
2021/04/20 09:16:53;;;;;;;29.98;12.02;;;11.10;67.70;;;;;;6185262;23;20297;-48
2021/04/20 09:19:56;;;;;;;23.75;8.30;;;11.20;68.40;;;;;;6184925;23;20091;-48
2021/04/20 09:22:40;;;;;;;24.00;10.18;;;11.20;67.50;;;;;;6184464;23;20097;-48
2021/04/20 09:25:12;;;;;;;38.45;14.20;;;11.20;67.40;;;;;;6184133;23;20020;-49
2021/04/20 09:27:45;;;;;;;13.60;6.93;;;11.20;67.20;;;;;;6184693;23;20177;-48
2021/04/20 09:30:16;;;;;;;19.27;9.70;;;11.30;67.20;;;;;;6184452;23;20005;-48
2021/04/20 09:32:51;;;;;;;44.53;16.33;;;11.30;67.30;;;;;;6184535;23;20005;-48
2021/04/20 09:35:17;;;;;;;44.50;18.15;;;11.30;67.00;;;;;;6184253;23;20001;-48
2021/04/20 09:37:44;;;;;;;35.15;14.35;;;11.30;67.10;;;;;;6183843;23;20336;-49
2021/04/20 09:40:15;;;;;;;30.83;12.93;;;11.30;67.00;;;;;;6184116;23;20024;-48
2021/04/20 09:42:44;;;;;;;44.55;13.60;;;11.30;66.80;;;;;;6184062;23;20012;-49
2021/04/20 09:45:19;;;;;;;21.33;8.40;;;11.40;66.80;;;;;;6183973;23;20566;-48
2021/04/20 09:47:48;;;;;;;20.92;9.48;;;11.30;66.70;;;;;;6184046;23;20011;-48
2021/04/20 09:50:54;;;;;;;34.30;14.95;;;11.40;66.80;;;;;;6183796;23;20424;-48
2021/04/20 09:53:52;;;;;;;31.70;11.45;;;11.40;66.80;;;;;;6183738;23;20390;-48
2021/04/20 09:56:22;;;;;;;30.90;11.75;;;11.40;66.60;;;;;;6207529;23;20005;-48
2021/04/20 09:58:48;;;;;;;23.70;11.40;;;11.40;67.40;;;;;;6183834;23;20415;-48
2021/04/20 10:01:22;;;;;;;28.88;14.07;;;11.40;66.80;;;;;;6185062;23;20004;-48
2021/04/20 10:04:05;;;;;;;31.85;11.13;;;11.50;66.60;;;;;;6185249;23;20005;-48
2021/04/20 10:06:54;;;;;;;25.67;12.10;;;11.40;66.60;;;;;;6185837;23;20017;-48
2021/04/20 10:09:37;;;;;;;29.73;13.23;;;11.40;66.50;;;;;;6185204;23;20300;-48
2021/04/20 10:12:35;;;;;;;28.90;11.52;;;11.40;66.40;;;;;;6185455;23;20033;-48
2021/04/20 10:15:23;;;;;;;30.67;12.98;;;11.50;66.40;;;;;;6185669;23;20005;-48
2021/04/20 10:17:56;;;;;;;23.00;8.32;;;11.50;67.00;;;;;;6185356;23;20080;-49
2021/04/20 10:20:34;;;;;;;25.75;11.68;;;11.50;66.90;;;;;;6159511;23;627802;-49
2021/04/20 10:23:36;;;;;;;28.85;13.75;;;11.50;66.70;;;;;;6186878;23;20012;-48
2021/04/20 10:26:14;;;;;;;31.25;11.52;;;11.50;66.80;;;;;;6187449;23;20009;-48
2021/04/20 10:28:48;;;;;;;20.13;7.55;;;11.50;66.90;;;;;;6187031;23;20005;-48
2021/04/20 10:31:30;;;;;;;25.00;10.50;;;11.60;66.80;;;;;;6187238;23;20329;-48
2021/04/20 10:33:57;;;;;;;25.77;11.95;;;11.60;66.50;;;;;;6187235;23;20005;-48
2021/04/20 10:36:25;;;;;;;25.38;11.52;;;11.60;66.40;;;;;;6187007;23;20001;-48
2021/04/20 10:38:56;;;;;;;31.90;11.13;;;11.70;66.30;;;;;;6186549;23;20020;-48
2021/04/20 10:41:29;;;;;;;24.63;9.32;;;11.70;66.40;;;;;;6187099;23;20282;-49
2021/04/20 10:43:56;;;;;;;13.30;5.15;;;11.70;66.10;;;;;;6186834;23;20012;-48
2021/04/20 10:46:25;;;;;;;25.90;10.57;;;11.70;66.40;;;;;;6187653;23;20079;-49
2021/04/20 10:48:57;;;;;;;10.25;5.75;;;11.70;66.50;;;;;;6186699;23;20005;-48
2021/04/20 10:51:53;;;;;;;16.92;6.18;;;11.70;66.30;;;;;;6186707;23;20005;-49
2021/04/20 10:54:21;;;;;;;18.33;5.90;;;11.70;66.40;;;;;;6185331;23;20001;-49
2021/04/20 10:56:51;;;;;;;10.43;4.88;;;11.80;66.30;;;;;;6186928;23;19997;-48
2021/04/20 10:59:54;;;;;;;22.17;10.73;;;11.80;65.50;;;;;;6186496;23;20071;-48
2021/04/20 11:02:22;;;;;;;16.33;7.80;;;11.80;66.00;;;;;;6180392;23;20005;-48
2021/04/20 11:04:51;;;;;;;19.13;8.30;;;11.80;66.10;;;;;;6186232;23;20012;-49
2021/04/20 11:07:20;;;;;;;13.93;7.10;;;11.80;66.20;;;;;;6187124;23;20313;-48
2021/04/20 11:09:54;;;;;;;13.35;6.18;;;11.80;66.10;;;;;;6186638;23;20078;-49
2021/04/20 11:12:20;;;;;;;14.05;6.38;;;11.80;66.90;;;;;;6186545;23;19997;-48
2021/04/20 11:14:50;;;;;;;16.38;6.90;;;11.80;66.10;;;;;;6186685;23;20016;-48
2021/04/20 11:17:36;;;;;;;3.58;2.33;;;11.90;65.80;;;;;;6186834;23;20001;-48
2021/04/20 11:20:10;;;;;;;18.45;7.20;;;11.90;65.70;;;;;;6186120;23;20120;-49
2021/04/20 11:23:08;;;;;;;16.33;7.78;;;11.90;65.80;;;;;;6186920;23;20001;-48
2021/04/20 11:25:48;;;;;;;11.68;5.88;;;11.90;66.00;;;;;;6165008;23;20012;-48
2021/04/20 11:28:38;;;;;;;2.30;1.33;;;11.80;66.00;;;;;;6186559;23;20005;-48
2021/04/20 11:31:06;;;;;;;6.88;2.95;;;11.90;65.40;;;;;;6186937;23;20009;-48
2021/04/20 11:33:38;;;;;;;15.05;7.30;;;11.90;65.30;;;;;;6186474;23;20341;-48
2021/04/20 11:36:12;;;;;;;15.60;6.35;;;11.90;65.40;;;;;;6186609;23;20060;-48
2021/04/20 11:38:46;;;;;;;3.65;2.65;;;11.90;65.20;;;;;;6186061;23;20001;-49
2021/04/20 11:41:14;;;;;;;19.10;6.90;;;11.90;65.30;;;;;;6186937;23;20055;-49
2021/04/20 11:43:41;;;;;;;14.30;5.90;;;12.00;65.20;;;;;;6186012;23;20001;-49
2021/04/20 11:46:15;;;;;;;10.05;6.13;;;11.90;65.60;;;;;;6186708;23;20016;-48
2021/04/20 11:48:43;;;;;;;16.83;6.35;;;12.00;66.40;;;;;;6186089;23;20063;-48
2021/04/20 11:51:09;;;;;;;16.40;7.75;;;12.10;65.30;;;;;;6186432;23;20005;-48
2021/04/20 11:53:43;;;;;;;15.55;6.82;;;12.10;64.80;;;;;;6186552;23;20001;-48
2021/04/20 11:56:10;;;;;;;11.93;5.60;;;12.10;65.00;;;;;;6186575;23;20009;-48
2021/04/20 11:58:41;;;;;;;11.52;5.93;;;12.00;65.40;;;;;;6186034;23;20076;-49
2021/04/20 12:01:21;;;;;;;12.35;6.55;;;11.90;65.60;;;;;;6186882;23;20009;-48
2021/04/20 12:03:54;;;;;;;10.48;5.00;;;11.90;65.60;;;;;;6186567;23;20005;-49
2021/04/20 12:06:23;;;;;;;11.18;5.20;;;11.90;65.70;;;;;;6186004;23;20284;-48
2021/04/20 12:08:56;;;;;;;15.10;5.82;;;12.00;65.30;;;;;;6184795;23;20039;-48
2021/04/20 12:11:29;;;;;;;15.90;8.40;;;11.90;65.70;;;;;;6185253;23;20008;-48
2021/04/20 12:13:56;;;;;;;18.67;8.57;;;11.90;65.80;;;;;;6186286;23;20135;-48
2021/04/20 12:16:23;;;;;;;14.10;7.00;;;12.00;65.80;;;;;;6185813;23;20005;-48
2021/04/20 12:18:52;;;;;;;14.77;6.95;;;12.00;65.60;;;;;;6185271;23;20345;-49
2021/04/20 12:21:30;;;;;;;15.35;7.35;;;12.00;65.30;;;;;;6186066;23;20475;-48
2021/04/20 12:23:59;;;;;;;15.77;7.03;;;12.00;65.30;;;;;;6185365;23;20001;-48
2021/04/20 12:26:31;;;;;;;12.85;5.70;;;12.00;65.50;;;;;;6186221;23;20092;-48
2021/04/20 12:28:59;;;;;;;5.90;2.90;;;12.10;65.10;;;;;;6185844;23;20004;-48
2021/04/20 12:31:34;;;;;;;10.75;5.93;;;12.10;65.70;;;;;;6186369;23;20005;-48
2021/04/20 12:34:00;;;;;;;14.20;7.85;;;12.20;64.50;;;;;;6186032;23;20005;-48
2021/04/20 12:36:33;;;;;;;11.27;5.50;;;12.10;64.40;;;;;;6185582;23;20393;-48
2021/04/20 12:39:02;;;;;;;11.95;6.60;;;12.00;64.70;;;;;;6185701;23;20023;-48
2021/04/20 12:41:30;;;;;;;12.48;6.15;;;12.00;64.90;;;;;;6185764;23;20039;-49
2021/04/20 12:44:09;;;;;;;13.30;6.82;;;12.00;65.00;;;;;;6186142;23;20032;-48
2021/04/20 12:46:36;;;;;;;10.70;5.10;;;11.90;65.20;;;;;;6185856;23;20304;-49
2021/04/20 12:49:05;;;;;;;13.05;3.75;;;11.90;65.20;;;;;;6185336;23;20348;-48
2021/04/20 12:51:36;;;;;;;11.27;5.85;;;11.90;65.00;;;;;;6186397;23;20205;-49
2021/04/20 12:54:04;;;;;;;13.25;6.05;;;11.90;64.90;;;;;;6186057;23;20005;-49
2021/04/20 12:56:35;;;;;;;17.27;8.23;;;11.90;65.00;;;;;;6186115;23;20001;-49
2021/04/20 12:59:05;;;;;;;18.20;7.90;;;11.90;64.90;;;;;;6185208;23;20349;-49
2021/04/20 13:01:32;;;;;;;20.83;7.68;;;11.90;64.90;;;;;;6185887;23;20111;-49
2021/04/20 13:03:58;;;;;;;17.02;7.22;;;11.80;64.50;;;;;;6186111;23;20004;-48
2021/04/20 13:06:26;;;;;;;14.88;7.60;;;11.80;64.80;;;;;;6185720;23;20044;-48